sensor_id;sensor_type;location;lat;lon;timestamp;P1;durP1;ratioP1;P2;durP2;ratioP2
55328;SDS011;41205;44.264;19.884;2023-03-23T00:02:24;12.88;;;9.00;;
55328;SDS011;41205;44.264;19.884;2023-03-23T00:04:50;15.27;;;9.90;;
55328;SDS011;41205;44.264;19.884;2023-03-23T00:07:18;14.00;;;9.60;;
55328;SDS011;41205;44.264;19.884;2023-03-23T00:09:49;15.63;;;10.98;;
55328;SDS011;41205;44.264;19.884;2023-03-23T00:12:22;21.08;;;14.23;;
55328;SDS011;41205;44.264;19.884;2023-03-23T00:15:04;14.52;;;11.45;;
55328;SDS011;41205;44.264;19.884;2023-03-23T00:17:32;16.27;;;9.98;;
55328;SDS011;41205;44.264;19.884;2023-03-23T00:19:58;13.55;;;8.90;;
55328;SDS011;41205;44.264;19.884;2023-03-23T00:22:26;10.32;;;8.15;;
55328;SDS011;41205;44.264;19.884;2023-03-23T00:24:53;15.80;;;8.63;;
55328;SDS011;41205;44.264;19.884;2023-03-23T00:27:20;13.57;;;9.93;;
55328;SDS011;41205;44.264;19.884;2023-03-23T00:29:49;15.98;;;11.23;;
55328;SDS011;41205;44.264;19.884;2023-03-23T00:32:22;39.78;;;25.20;;
55328;SDS011;41205;44.264;19.884;2023-03-23T00:34:54;52.90;;;27.75;;
55328;SDS011;41205;44.264;19.884;2023-03-23T00:37:20;28.02;;;16.02;;
55328;SDS011;41205;44.264;19.884;2023-03-23T00:39:46;21.08;;;11.65;;
55328;SDS011;41205;44.264;19.884;2023-03-23T00:42:13;12.40;;;9.38;;
55328;SDS011;41205;44.264;19.884;2023-03-23T00:44:40;13.18;;;9.02;;
55328;SDS011;41205;44.264;19.884;2023-03-23T00:47:06;11.63;;;8.32;;
55328;SDS011;41205;44.264;19.884;2023-03-23T00:49:35;13.85;;;8.70;;
55328;SDS011;41205;44.264;19.884;2023-03-23T00:52:01;12.32;;;8.13;;
55328;SDS011;41205;44.264;19.884;2023-03-23T00:54:28;18.00;;;13.48;;
55328;SDS011;41205;44.264;19.884;2023-03-23T00:56:54;20.25;;;14.63;;
55328;SDS011;41205;44.264;19.884;2023-03-23T00:59:20;14.98;;;10.55;;
55328;SDS011;41205;44.264;19.884;2023-03-23T01:01:47;13.73;;;9.55;;
55328;SDS011;41205;44.264;19.884;2023-03-23T01:04:13;18.45;;;9.98;;
55328;SDS011;41205;44.264;19.884;2023-03-23T01:06:40;12.57;;;8.20;;
55328;SDS011;41205;44.264;19.884;2023-03-23T01:09:08;13.18;;;8.02;;
55328;SDS011;41205;44.264;19.884;2023-03-23T01:11:39;22.85;;;13.15;;
55328;SDS011;41205;44.264;19.884;2023-03-23T01:14:09;19.67;;;14.05;;
55328;SDS011;41205;44.264;19.884;2023-03-23T01:16:35;22.95;;;14.10;;
55328;SDS011;41205;44.264;19.884;2023-03-23T01:19:01;15.55;;;11.35;;
55328;SDS011;41205;44.264;19.884;2023-03-23T01:21:27;14.35;;;10.63;;
55328;SDS011;41205;44.264;19.884;2023-03-23T01:23:53;14.32;;;11.65;;
55328;SDS011;41205;44.264;19.884;2023-03-23T01:26:20;26.50;;;18.40;;
55328;SDS011;41205;44.264;19.884;2023-03-23T01:28:48;70.40;;;35.63;;
55328;SDS011;41205;44.264;19.884;2023-03-23T01:31:18;130.52;;;58.70;;
55328;SDS011;41205;44.264;19.884;2023-03-23T01:33:46;32.05;;;16.10;;
55328;SDS011;41205;44.264;19.884;2023-03-23T01:36:14;14.93;;;10.65;;
55328;SDS011;41205;44.264;19.884;2023-03-23T01:38:43;11.60;;;9.27;;
55328;SDS011;41205;44.264;19.884;2023-03-23T01:41:10;20.13;;;10.88;;
55328;SDS011;41205;44.264;19.884;2023-03-23T01:43:52;13.30;;;8.52;;
55328;SDS011;41205;44.264;19.884;2023-03-23T01:46:31;15.13;;;9.63;;
55328;SDS011;41205;44.264;19.884;2023-03-23T01:49:00;11.95;;;8.27;;
55328;SDS011;41205;44.264;19.884;2023-03-23T01:51:34;11.55;;;8.43;;
55328;SDS011;41205;44.264;19.884;2023-03-23T01:54:03;11.57;;;7.32;;
55328;SDS011;41205;44.264;19.884;2023-03-23T01:56:35;14.20;;;8.18;;
55328;SDS011;41205;44.264;19.884;2023-03-23T01:59:06;13.38;;;9.07;;
55328;SDS011;41205;44.264;19.884;2023-03-23T02:01:34;39.35;;;19.00;;
55328;SDS011;41205;44.264;19.884;2023-03-23T02:04:03;65.65;;;42.20;;
55328;SDS011;41205;44.264;19.884;2023-03-23T02:06:30;39.22;;;23.55;;
55328;SDS011;41205;44.264;19.884;2023-03-23T02:08:56;19.33;;;12.00;;
55328;SDS011;41205;44.264;19.884;2023-03-23T02:11:22;19.42;;;12.27;;
55328;SDS011;41205;44.264;19.884;2023-03-23T02:13:48;13.60;;;9.07;;
55328;SDS011;41205;44.264;19.884;2023-03-23T02:21:59;14.63;;;9.43;;
55328;SDS011;41205;44.264;19.884;2023-03-23T02:35:50;14.48;;;10.25;;
55328;SDS011;41205;44.264;19.884;2023-03-23T02:38:23;12.32;;;8.48;;
55328;SDS011;41205;44.264;19.884;2023-03-23T02:40:59;14.05;;;8.75;;
55328;SDS011;41205;44.264;19.884;2023-03-23T02:43:28;15.75;;;10.02;;
55328;SDS011;41205;44.264;19.884;2023-03-23T02:45:59;22.95;;;12.18;;
55328;SDS011;41205;44.264;19.884;2023-03-23T02:48:28;16.52;;;10.00;;
55328;SDS011;41205;44.264;19.884;2023-03-23T02:50:55;13.82;;;9.43;;
55328;SDS011;41205;44.264;19.884;2023-03-23T02:53:23;10.73;;;8.65;;
55328;SDS011;41205;44.264;19.884;2023-03-23T02:55:51;12.48;;;8.07;;
55328;SDS011;41205;44.264;19.884;2023-03-23T02:58:20;11.85;;;8.02;;
55328;SDS011;41205;44.264;19.884;2023-03-23T03:00:48;15.65;;;9.52;;
55328;SDS011;41205;44.264;19.884;2023-03-23T03:03:15;19.45;;;12.68;;
55328;SDS011;41205;44.264;19.884;2023-03-23T03:08:27;13.70;;;9.95;;
55328;SDS011;41205;44.264;19.884;2023-03-23T03:11:09;14.38;;;9.10;;
55328;SDS011;41205;44.264;19.884;2023-03-23T03:13:51;18.75;;;11.50;;
55328;SDS011;41205;44.264;19.884;2023-03-23T03:18:49;19.15;;;12.13;;
55328;SDS011;41205;44.264;19.884;2023-03-23T03:21:20;15.35;;;12.00;;
55328;SDS011;41205;44.264;19.884;2023-03-23T03:23:50;14.18;;;9.43;;
55328;SDS011;41205;44.264;19.884;2023-03-23T03:26:21;13.60;;;10.20;;
55328;SDS011;41205;44.264;19.884;2023-03-23T03:28:51;13.82;;;9.60;;
55328;SDS011;41205;44.264;19.884;2023-03-23T03:31:19;19.83;;;15.75;;
55328;SDS011;41205;44.264;19.884;2023-03-23T03:33:52;18.70;;;13.52;;
55328;SDS011;41205;44.264;19.884;2023-03-23T03:36:21;18.40;;;10.07;;
55328;SDS011;41205;44.264;19.884;2023-03-23T03:38:51;15.93;;;9.87;;
55328;SDS011;41205;44.264;19.884;2023-03-23T03:41:17;14.48;;;11.27;;
55328;SDS011;41205;44.264;19.884;2023-03-23T03:43:44;12.20;;;9.23;;
55328;SDS011;41205;44.264;19.884;2023-03-23T03:46:09;16.02;;;9.70;;
55328;SDS011;41205;44.264;19.884;2023-03-23T03:48:35;17.67;;;11.57;;
55328;SDS011;41205;44.264;19.884;2023-03-23T03:51:01;12.02;;;7.63;;
55328;SDS011;41205;44.264;19.884;2023-03-23T03:53:27;12.63;;;9.10;;
55328;SDS011;41205;44.264;19.884;2023-03-23T03:55:53;16.75;;;11.90;;
55328;SDS011;41205;44.264;19.884;2023-03-23T03:58:25;14.65;;;9.85;;
55328;SDS011;41205;44.264;19.884;2023-03-23T04:00:59;12.85;;;8.55;;
55328;SDS011;41205;44.264;19.884;2023-03-23T04:03:26;10.85;;;8.07;;
55328;SDS011;41205;44.264;19.884;2023-03-23T04:05:53;12.35;;;8.98;;
55328;SDS011;41205;44.264;19.884;2023-03-23T04:08:21;10.45;;;7.80;;
55328;SDS011;41205;44.264;19.884;2023-03-23T04:10:47;13.82;;;7.68;;
55328;SDS011;41205;44.264;19.884;2023-03-23T04:13:13;10.77;;;7.95;;
55328;SDS011;41205;44.264;19.884;2023-03-23T04:15:40;15.60;;;9.98;;
55328;SDS011;41205;44.264;19.884;2023-03-23T04:18:05;16.02;;;9.80;;
55328;SDS011;41205;44.264;19.884;2023-03-23T04:20:31;9.25;;;7.85;;
55328;SDS011;41205;44.264;19.884;2023-03-23T04:23:00;10.40;;;8.10;;
55328;SDS011;41205;44.264;19.884;2023-03-23T04:25:26;12.35;;;9.27;;
55328;SDS011;41205;44.264;19.884;2023-03-23T04:27:52;12.75;;;7.63;;
55328;SDS011;41205;44.264;19.884;2023-03-23T04:30:20;9.93;;;8.38;;
55328;SDS011;41205;44.264;19.884;2023-03-23T04:32:48;10.20;;;8.35;;
55328;SDS011;41205;44.264;19.884;2023-03-23T04:35:20;10.50;;;6.93;;
55328;SDS011;41205;44.264;19.884;2023-03-23T04:37:50;10.73;;;7.47;;
55328;SDS011;41205;44.264;19.884;2023-03-23T04:40:16;14.40;;;7.10;;
55328;SDS011;41205;44.264;19.884;2023-03-23T04:42:43;12.85;;;7.82;;
55328;SDS011;41205;44.264;19.884;2023-03-23T04:45:13;10.90;;;7.13;;
55328;SDS011;41205;44.264;19.884;2023-03-23T04:47:40;12.40;;;6.93;;
55328;SDS011;41205;44.264;19.884;2023-03-23T04:50:11;12.38;;;7.60;;
55328;SDS011;41205;44.264;19.884;2023-03-23T04:52:38;13.77;;;8.02;;
55328;SDS011;41205;44.264;19.884;2023-03-23T04:55:09;11.00;;;8.77;;
55328;SDS011;41205;44.264;19.884;2023-03-23T04:57:35;9.95;;;6.78;;
55328;SDS011;41205;44.264;19.884;2023-03-23T05:00:02;12.65;;;6.68;;
55328;SDS011;41205;44.264;19.884;2023-03-23T05:02:36;9.90;;;6.67;;
55328;SDS011;41205;44.264;19.884;2023-03-23T05:05:04;11.27;;;8.18;;
55328;SDS011;41205;44.264;19.884;2023-03-23T05:07:31;12.60;;;7.68;;
55328;SDS011;41205;44.264;19.884;2023-03-23T05:09:56;9.80;;;6.90;;
55328;SDS011;41205;44.264;19.884;2023-03-23T05:12:22;12.32;;;9.05;;
55328;SDS011;41205;44.264;19.884;2023-03-23T05:14:48;8.20;;;7.00;;
55328;SDS011;41205;44.264;19.884;2023-03-23T05:17:14;12.05;;;8.23;;
55328;SDS011;41205;44.264;19.884;2023-03-23T05:19:42;10.27;;;7.93;;
55328;SDS011;41205;44.264;19.884;2023-03-23T05:22:09;10.95;;;8.32;;
55328;SDS011;41205;44.264;19.884;2023-03-23T05:24:38;16.67;;;8.85;;
55328;SDS011;41205;44.264;19.884;2023-03-23T05:27:03;13.18;;;7.97;;
55328;SDS011;41205;44.264;19.884;2023-03-23T05:29:29;10.65;;;8.48;;
55328;SDS011;41205;44.264;19.884;2023-03-23T05:31:56;10.93;;;7.63;;
55328;SDS011;41205;44.264;19.884;2023-03-23T05:34:25;12.65;;;8.27;;
55328;SDS011;41205;44.264;19.884;2023-03-23T05:36:51;12.27;;;8.20;;
55328;SDS011;41205;44.264;19.884;2023-03-23T05:39:18;9.18;;;7.28;;
55328;SDS011;41205;44.264;19.884;2023-03-23T05:41:44;14.10;;;8.23;;
55328;SDS011;41205;44.264;19.884;2023-03-23T05:44:11;10.57;;;8.40;;
55328;SDS011;41205;44.264;19.884;2023-03-23T05:46:38;11.82;;;7.93;;
55328;SDS011;41205;44.264;19.884;2023-03-23T05:49:04;13.73;;;7.78;;
55328;SDS011;41205;44.264;19.884;2023-03-23T05:51:30;11.95;;;9.02;;
55328;SDS011;41205;44.264;19.884;2023-03-23T05:53:56;11.63;;;8.35;;
55328;SDS011;41205;44.264;19.884;2023-03-23T05:56:22;10.32;;;7.85;;
55328;SDS011;41205;44.264;19.884;2023-03-23T05:58:48;11.73;;;7.85;;
55328;SDS011;41205;44.264;19.884;2023-03-23T06:01:14;9.65;;;7.63;;
55328;SDS011;41205;44.264;19.884;2023-03-23T06:03:40;10.20;;;7.70;;
55328;SDS011;41205;44.264;19.884;2023-03-23T06:06:09;16.65;;;10.45;;
55328;SDS011;41205;44.264;19.884;2023-03-23T06:08:36;11.40;;;9.63;;
55328;SDS011;41205;44.264;19.884;2023-03-23T06:11:02;10.45;;;8.65;;
55328;SDS011;41205;44.264;19.884;2023-03-23T06:13:28;11.50;;;9.25;;
55328;SDS011;41205;44.264;19.884;2023-03-23T06:15:55;11.55;;;9.48;;
55328;SDS011;41205;44.264;19.884;2023-03-23T06:18:24;12.50;;;10.35;;
55328;SDS011;41205;44.264;19.884;2023-03-23T06:20:50;24.35;;;17.08;;
55328;SDS011;41205;44.264;19.884;2023-03-23T06:23:16;17.13;;;15.52;;
55328;SDS011;41205;44.264;19.884;2023-03-23T06:25:42;15.88;;;14.27;;
55328;SDS011;41205;44.264;19.884;2023-03-23T06:28:09;19.60;;;11.27;;
55328;SDS011;41205;44.264;19.884;2023-03-23T06:30:35;13.80;;;12.50;;
55328;SDS011;41205;44.264;19.884;2023-03-23T06:33:01;19.07;;;15.53;;
55328;SDS011;41205;44.264;19.884;2023-03-23T06:35:30;17.23;;;15.52;;
55328;SDS011;41205;44.264;19.884;2023-03-23T06:37:57;146.25;;;132.27;;
55328;SDS011;41205;44.264;19.884;2023-03-23T06:40:26;104.93;;;94.35;;
55328;SDS011;41205;44.264;19.884;2023-03-23T06:42:53;30.60;;;27.50;;
55328;SDS011;41205;44.264;19.884;2023-03-23T06:45:19;29.08;;;26.15;;
55328;SDS011;41205;44.264;19.884;2023-03-23T06:47:45;19.77;;;17.98;;
55328;SDS011;41205;44.264;19.884;2023-03-23T06:50:14;17.63;;;16.00;;
55328;SDS011;41205;44.264;19.884;2023-03-23T06:52:44;12.60;;;11.32;;
55328;SDS011;41205;44.264;19.884;2023-03-23T06:55:11;11.35;;;10.32;;
55328;SDS011;41205;44.264;19.884;2023-03-23T06:57:38;14.70;;;12.90;;
55328;SDS011;41205;44.264;19.884;2023-03-23T07:00:04;20.88;;;12.45;;
55328;SDS011;41205;44.264;19.884;2023-03-23T07:02:34;11.38;;;10.38;;
55328;SDS011;41205;44.264;19.884;2023-03-23T07:05:00;43.58;;;39.45;;
55328;SDS011;41205;44.264;19.884;2023-03-23T07:07:28;12.50;;;11.32;;
55328;SDS011;41205;44.264;19.884;2023-03-23T07:09:54;12.73;;;11.73;;
55328;SDS011;41205;44.264;19.884;2023-03-23T07:12:20;12.02;;;10.90;;
55328;SDS011;41205;44.264;19.884;2023-03-23T07:14:46;12.00;;;11.00;;
55328;SDS011;41205;44.264;19.884;2023-03-23T07:17:12;14.45;;;12.93;;
55328;SDS011;41205;44.264;19.884;2023-03-23T07:19:38;26.88;;;24.58;;
55328;SDS011;41205;44.264;19.884;2023-03-23T07:22:06;12.88;;;11.60;;
55328;SDS011;41205;44.264;19.884;2023-03-23T07:24:33;13.95;;;12.65;;
55328;SDS011;41205;44.264;19.884;2023-03-23T07:26:59;19.52;;;17.42;;
55328;SDS011;41205;44.264;19.884;2023-03-23T07:29:26;24.20;;;21.67;;
55328;SDS011;41205;44.264;19.884;2023-03-23T07:31:52;23.25;;;21.15;;
55328;SDS011;41205;44.264;19.884;2023-03-23T07:34:19;24.85;;;22.40;;
55328;SDS011;41205;44.264;19.884;2023-03-23T07:36:45;22.50;;;20.45;;
55328;SDS011;41205;44.264;19.884;2023-03-23T07:39:11;23.20;;;21.13;;
55328;SDS011;41205;44.264;19.884;2023-03-23T07:41:38;26.88;;;22.75;;
55328;SDS011;41205;44.264;19.884;2023-03-23T07:44:04;24.90;;;22.40;;
55328;SDS011;41205;44.264;19.884;2023-03-23T07:46:30;33.15;;;29.42;;
55328;SDS011;41205;44.264;19.884;2023-03-23T07:48:57;30.95;;;28.00;;
55328;SDS011;41205;44.264;19.884;2023-03-23T07:51:23;27.02;;;24.73;;
55328;SDS011;41205;44.264;19.884;2023-03-23T07:53:49;31.00;;;27.98;;
55328;SDS011;41205;44.264;19.884;2023-03-23T07:56:16;27.08;;;24.65;;
55328;SDS011;41205;44.264;19.884;2023-03-23T07:58:47;24.85;;;22.20;;
55328;SDS011;41205;44.264;19.884;2023-03-23T08:01:13;27.30;;;24.35;;
55328;SDS011;41205;44.264;19.884;2023-03-23T08:03:39;31.48;;;28.23;;
55328;SDS011;41205;44.264;19.884;2023-03-23T08:06:05;32.13;;;25.45;;
55328;SDS011;41205;44.264;19.884;2023-03-23T08:08:31;31.55;;;25.55;;
55328;SDS011;41205;44.264;19.884;2023-03-23T08:10:58;32.58;;;26.23;;
55328;SDS011;41205;44.264;19.884;2023-03-23T08:13:24;31.83;;;28.55;;
55328;SDS011;41205;44.264;19.884;2023-03-23T08:15:50;29.05;;;25.98;;
55328;SDS011;41205;44.264;19.884;2023-03-23T08:18:16;28.58;;;25.23;;
55328;SDS011;41205;44.264;19.884;2023-03-23T08:20:43;27.30;;;23.15;;
55328;SDS011;41205;44.264;19.884;2023-03-23T08:23:09;24.42;;;21.40;;
55328;SDS011;41205;44.264;19.884;2023-03-23T08:25:36;22.13;;;19.88;;
55328;SDS011;41205;44.264;19.884;2023-03-23T08:28:02;24.92;;;22.25;;
55328;SDS011;41205;44.264;19.884;2023-03-23T08:30:29;24.70;;;19.90;;
55328;SDS011;41205;44.264;19.884;2023-03-23T08:32:58;21.45;;;19.27;;
55328;SDS011;41205;44.264;19.884;2023-03-23T08:35:25;22.60;;;20.02;;
55328;SDS011;41205;44.264;19.884;2023-03-23T08:37:52;25.42;;;20.20;;
55328;SDS011;41205;44.264;19.884;2023-03-23T08:40:20;19.92;;;17.45;;
55328;SDS011;41205;44.264;19.884;2023-03-23T08:42:48;18.95;;;16.92;;
55328;SDS011;41205;44.264;19.884;2023-03-23T08:45:16;19.20;;;15.63;;
55328;SDS011;41205;44.264;19.884;2023-03-23T08:47:44;17.33;;;15.25;;
55328;SDS011;41205;44.264;19.884;2023-03-23T08:50:12;15.82;;;14.32;;
55328;SDS011;41205;44.264;19.884;2023-03-23T08:52:41;22.70;;;19.65;;
55328;SDS011;41205;44.264;19.884;2023-03-23T08:55:08;21.77;;;16.02;;
55328;SDS011;41205;44.264;19.884;2023-03-23T08:57:35;19.35;;;14.90;;
55328;SDS011;41205;44.264;19.884;2023-03-23T09:00:05;18.02;;;15.70;;
55328;SDS011;41205;44.264;19.884;2023-03-23T09:02:44;19.25;;;15.13;;
55328;SDS011;41205;44.264;19.884;2023-03-23T09:05:12;16.20;;;14.50;;
55328;SDS011;41205;44.264;19.884;2023-03-23T09:07:39;22.23;;;17.52;;
55328;SDS011;41205;44.264;19.884;2023-03-23T09:10:07;21.27;;;18.02;;
55328;SDS011;41205;44.264;19.884;2023-03-23T09:12:34;19.67;;;15.48;;
55328;SDS011;41205;44.264;19.884;2023-03-23T09:15:01;18.73;;;13.77;;
55328;SDS011;41205;44.264;19.884;2023-03-23T09:17:33;11.47;;;9.40;;
55328;SDS011;41205;44.264;19.884;2023-03-23T09:20:02;14.18;;;8.00;;
55328;SDS011;41205;44.264;19.884;2023-03-23T09:22:32;11.68;;;8.13;;
55328;SDS011;41205;44.264;19.884;2023-03-23T09:24:58;9.63;;;7.47;;
55328;SDS011;41205;44.264;19.884;2023-03-23T09:27:23;7.50;;;5.85;;
55328;SDS011;41205;44.264;19.884;2023-03-23T09:29:50;12.38;;;6.65;;
55328;SDS011;41205;44.264;19.884;2023-03-23T09:32:16;11.98;;;5.60;;
55328;SDS011;41205;44.264;19.884;2023-03-23T09:34:42;10.60;;;5.95;;
55328;SDS011;41205;44.264;19.884;2023-03-23T09:37:08;11.18;;;5.57;;
55328;SDS011;41205;44.264;19.884;2023-03-23T09:39:34;10.63;;;5.75;;
55328;SDS011;41205;44.264;19.884;2023-03-23T09:42:07;11.50;;;7.40;;
55328;SDS011;41205;44.264;19.884;2023-03-23T09:47:41;11.27;;;8.48;;
55328;SDS011;41205;44.264;19.884;2023-03-23T09:50:30;6.55;;;5.07;;
55328;SDS011;41205;44.264;19.884;2023-03-23T09:55:26;8.93;;;5.47;;
55328;SDS011;41205;44.264;19.884;2023-03-23T10:01:10;7.70;;;6.30;;
55328;SDS011;41205;44.264;19.884;2023-03-23T10:03:46;5.97;;;4.72;;
55328;SDS011;41205;44.264;19.884;2023-03-23T10:06:13;7.25;;;4.80;;
55328;SDS011;41205;44.264;19.884;2023-03-23T10:08:50;7.60;;;4.13;;
55328;SDS011;41205;44.264;19.884;2023-03-23T10:17:04;10.88;;;4.57;;
55328;SDS011;41205;44.264;19.884;2023-03-23T10:22:27;4.88;;;4.03;;
55328;SDS011;41205;44.264;19.884;2023-03-23T10:25:08;9.70;;;6.78;;
55328;SDS011;41205;44.264;19.884;2023-03-23T10:28:01;6.53;;;5.43;;
55328;SDS011;41205;44.264;19.884;2023-03-23T10:30:37;10.45;;;6.13;;
55328;SDS011;41205;44.264;19.884;2023-03-23T10:35:55;7.28;;;5.65;;
55328;SDS011;41205;44.264;19.884;2023-03-23T10:38:31;6.90;;;5.18;;
55328;SDS011;41205;44.264;19.884;2023-03-23T10:41:01;10.65;;;8.00;;
55328;SDS011;41205;44.264;19.884;2023-03-23T10:43:34;6.88;;;5.18;;
55328;SDS011;41205;44.264;19.884;2023-03-23T10:46:01;10.05;;;6.07;;
55328;SDS011;41205;44.264;19.884;2023-03-23T10:48:32;6.85;;;5.25;;
55328;SDS011;41205;44.264;19.884;2023-03-23T10:51:03;7.45;;;4.40;;
55328;SDS011;41205;44.264;19.884;2023-03-23T10:53:35;5.93;;;5.00;;
55328;SDS011;41205;44.264;19.884;2023-03-23T10:56:03;10.48;;;5.50;;
55328;SDS011;41205;44.264;19.884;2023-03-23T10:58:31;9.98;;;7.07;;
55328;SDS011;41205;44.264;19.884;2023-03-23T11:00:59;9.85;;;6.85;;
55328;SDS011;41205;44.264;19.884;2023-03-23T11:03:48;7.18;;;5.00;;
55328;SDS011;41205;44.264;19.884;2023-03-23T11:06:30;8.23;;;5.20;;
55328;SDS011;41205;44.264;19.884;2023-03-23T11:09:08;7.45;;;5.18;;
55328;SDS011;41205;44.264;19.884;2023-03-23T11:11:47;5.65;;;4.65;;
55328;SDS011;41205;44.264;19.884;2023-03-23T11:16:56;6.85;;;4.90;;
55328;SDS011;41205;44.264;19.884;2023-03-23T11:19:27;12.48;;;8.77;;
55328;SDS011;41205;44.264;19.884;2023-03-23T11:21:55;12.70;;;6.10;;
55328;SDS011;41205;44.264;19.884;2023-03-23T11:24:41;8.18;;;5.53;;
55328;SDS011;41205;44.264;19.884;2023-03-23T11:27:10;7.78;;;6.00;;
55328;SDS011;41205;44.264;19.884;2023-03-23T11:29:47;11.18;;;7.38;;
55328;SDS011;41205;44.264;19.884;2023-03-23T11:32:18;7.30;;;5.10;;
55328;SDS011;41205;44.264;19.884;2023-03-23T11:34:48;7.50;;;4.78;;
55328;SDS011;41205;44.264;19.884;2023-03-23T11:37:40;9.85;;;5.18;;
55328;SDS011;41205;44.264;19.884;2023-03-23T11:40:17;7.03;;;4.40;;
55328;SDS011;41205;44.264;19.884;2023-03-23T11:43:07;5.43;;;4.40;;
55328;SDS011;41205;44.264;19.884;2023-03-23T11:46:02;4.75;;;4.15;;
55328;SDS011;41205;44.264;19.884;2023-03-23T11:51:37;7.53;;;5.07;;
55328;SDS011;41205;44.264;19.884;2023-03-23T11:56:57;7.00;;;5.60;;
55328;SDS011;41205;44.264;19.884;2023-03-23T11:59:33;5.15;;;4.15;;
55328;SDS011;41205;44.264;19.884;2023-03-23T12:16:00;6.45;;;4.53;;
55328;SDS011;41205;44.264;19.884;2023-03-23T12:32:33;8.38;;;5.68;;
55328;SDS011;41205;44.264;19.884;2023-03-23T12:35:30;8.43;;;6.28;;
55328;SDS011;41205;44.264;19.884;2023-03-23T12:46:01;9.13;;;7.43;;
55328;SDS011;41205;44.264;19.884;2023-03-23T12:48:43;8.75;;;4.70;;
55328;SDS011;41205;44.264;19.884;2023-03-23T12:51:35;9.73;;;6.38;;
55328;SDS011;41205;44.264;19.884;2023-03-23T12:54:12;7.28;;;5.55;;
55328;SDS011;41205;44.264;19.884;2023-03-23T13:02:20;5.88;;;5.22;;
55328;SDS011;41205;44.264;19.884;2023-03-23T13:05:00;9.50;;;4.30;;
55328;SDS011;41205;44.264;19.884;2023-03-23T13:07:48;10.68;;;6.65;;
55328;SDS011;41205;44.264;19.884;2023-03-23T13:10:36;8.95;;;5.38;;
55328;SDS011;41205;44.264;19.884;2023-03-23T13:13:10;6.70;;;5.00;;
55328;SDS011;41205;44.264;19.884;2023-03-23T13:15:46;11.30;;;5.20;;
55328;SDS011;41205;44.264;19.884;2023-03-23T13:21:02;8.50;;;6.47;;
55328;SDS011;41205;44.264;19.884;2023-03-23T13:23:56;9.40;;;8.00;;
55328;SDS011;41205;44.264;19.884;2023-03-23T13:26:29;32.22;;;21.30;;
55328;SDS011;41205;44.264;19.884;2023-03-23T13:28:57;8.48;;;5.57;;
55328;SDS011;41205;44.264;19.884;2023-03-23T13:31:37;7.00;;;4.50;;
55328;SDS011;41205;44.264;19.884;2023-03-23T13:34:23;7.22;;;4.93;;
55328;SDS011;41205;44.264;19.884;2023-03-23T13:37:00;6.75;;;4.57;;
55328;SDS011;41205;44.264;19.884;2023-03-23T13:39:30;6.57;;;4.55;;
55328;SDS011;41205;44.264;19.884;2023-03-23T13:58:20;7.07;;;5.80;;
55328;SDS011;41205;44.264;19.884;2023-03-23T14:01:01;6.82;;;5.20;;
55328;SDS011;41205;44.264;19.884;2023-03-23T14:03:36;9.90;;;6.40;;
55328;SDS011;41205;44.264;19.884;2023-03-23T14:06:15;6.30;;;5.35;;
55328;SDS011;41205;44.264;19.884;2023-03-23T14:08:52;7.03;;;5.93;;
55328;SDS011;41205;44.264;19.884;2023-03-23T14:14:17;6.63;;;4.55;;
55328;SDS011;41205;44.264;19.884;2023-03-23T14:17:05;11.52;;;6.63;;
55328;SDS011;41205;44.264;19.884;2023-03-23T14:19:32;9.73;;;5.47;;
55328;SDS011;41205;44.264;19.884;2023-03-23T14:22:02;10.02;;;6.00;;
55328;SDS011;41205;44.264;19.884;2023-03-23T14:24:33;13.70;;;6.05;;
55328;SDS011;41205;44.264;19.884;2023-03-23T14:29:33;9.00;;;5.88;;
55328;SDS011;41205;44.264;19.884;2023-03-23T14:31:59;10.30;;;5.50;;
55328;SDS011;41205;44.264;19.884;2023-03-23T14:34:26;9.68;;;7.30;;
55328;SDS011;41205;44.264;19.884;2023-03-23T14:36:54;8.20;;;6.72;;
55328;SDS011;41205;44.264;19.884;2023-03-23T14:39:27;29.70;;;14.25;;
55328;SDS011;41205;44.264;19.884;2023-03-23T14:42:00;7.57;;;4.95;;
55328;SDS011;41205;44.264;19.884;2023-03-23T14:44:32;8.00;;;5.18;;
55328;SDS011;41205;44.264;19.884;2023-03-23T14:47:01;6.53;;;5.15;;
55328;SDS011;41205;44.264;19.884;2023-03-23T14:49:32;6.93;;;5.20;;
55328;SDS011;41205;44.264;19.884;2023-03-23T14:52:08;9.57;;;6.07;;
55328;SDS011;41205;44.264;19.884;2023-03-23T14:54:34;12.50;;;5.68;;
55328;SDS011;41205;44.264;19.884;2023-03-23T14:57:03;7.30;;;4.85;;
55328;SDS011;41205;44.264;19.884;2023-03-23T14:59:42;6.72;;;4.78;;
55328;SDS011;41205;44.264;19.884;2023-03-23T15:02:11;7.07;;;5.47;;
55328;SDS011;41205;44.264;19.884;2023-03-23T15:04:50;6.45;;;5.15;;
55328;SDS011;41205;44.264;19.884;2023-03-23T15:07:24;11.18;;;5.95;;
55328;SDS011;41205;44.264;19.884;2023-03-23T15:09:56;8.88;;;7.15;;
55328;SDS011;41205;44.264;19.884;2023-03-23T15:12:23;11.90;;;8.57;;
55328;SDS011;41205;44.264;19.884;2023-03-23T15:14:57;10.93;;;8.00;;
55328;SDS011;41205;44.264;19.884;2023-03-23T15:17:37;11.95;;;9.23;;
55328;SDS011;41205;44.264;19.884;2023-03-23T15:20:10;11.32;;;5.07;;
55328;SDS011;41205;44.264;19.884;2023-03-23T15:22:47;8.50;;;5.67;;
55328;SDS011;41205;44.264;19.884;2023-03-23T15:30:35;8.93;;;5.78;;
55328;SDS011;41205;44.264;19.884;2023-03-23T15:33:11;10.05;;;7.60;;
55328;SDS011;41205;44.264;19.884;2023-03-23T15:35:39;15.82;;;11.80;;
55328;SDS011;41205;44.264;19.884;2023-03-23T15:38:30;17.83;;;15.07;;
55328;SDS011;41205;44.264;19.884;2023-03-23T15:40:59;24.80;;;13.43;;
55328;SDS011;41205;44.264;19.884;2023-03-23T15:43:37;15.43;;;11.27;;
55328;SDS011;41205;44.264;19.884;2023-03-23T15:46:21;12.90;;;10.20;;
55328;SDS011;41205;44.264;19.884;2023-03-23T15:51:24;22.83;;;17.52;;
55328;SDS011;41205;44.264;19.884;2023-03-23T15:53:52;19.02;;;14.23;;
55328;SDS011;41205;44.264;19.884;2023-03-23T15:56:19;18.88;;;11.65;;
55328;SDS011;41205;44.264;19.884;2023-03-23T15:58:45;32.42;;;22.98;;
55328;SDS011;41205;44.264;19.884;2023-03-23T16:01:13;23.48;;;15.20;;
55328;SDS011;41205;44.264;19.884;2023-03-23T16:06:22;33.45;;;26.13;;
55328;SDS011;41205;44.264;19.884;2023-03-23T16:08:52;26.05;;;16.90;;
55328;SDS011;41205;44.264;19.884;2023-03-23T16:11:18;20.52;;;11.70;;
55328;SDS011;41205;44.264;19.884;2023-03-23T16:13:44;17.52;;;10.45;;
55328;SDS011;41205;44.264;19.884;2023-03-23T16:16:44;11.15;;;7.25;;
55328;SDS011;41205;44.264;19.884;2023-03-23T16:19:03;32.03;;;12.18;;
55328;SDS011;41205;44.264;19.884;2023-03-23T16:21:30;24.27;;;15.27;;
55328;SDS011;41205;44.264;19.884;2023-03-23T16:23:57;25.13;;;16.42;;
55328;SDS011;41205;44.264;19.884;2023-03-23T16:26:23;24.48;;;16.35;;
55328;SDS011;41205;44.264;19.884;2023-03-23T16:28:49;19.80;;;15.00;;
55328;SDS011;41205;44.264;19.884;2023-03-23T16:31:15;22.08;;;14.02;;
55328;SDS011;41205;44.264;19.884;2023-03-23T16:33:40;27.15;;;16.13;;
55328;SDS011;41205;44.264;19.884;2023-03-23T16:36:06;27.58;;;18.77;;
55328;SDS011;41205;44.264;19.884;2023-03-23T16:38:34;89.00;;;65.50;;
55328;SDS011;41205;44.264;19.884;2023-03-23T16:41:00;100.25;;;77.15;;
55328;SDS011;41205;44.264;19.884;2023-03-23T16:43:27;362.55;;;270.42;;